createdAt,value
2022-11-08T00:02:23.875Z,33.58
2022-11-08T00:05:45.072Z,31.27
2022-11-08T00:09:06.078Z,34.35
2022-11-08T00:12:27.756Z,37.87
2022-11-08T00:15:33.586Z,33.00
2022-11-08T00:18:36.397Z,33.60
2022-11-08T00:21:39.198Z,29.17
2022-11-08T00:24:41.877Z,34.67
2022-11-08T00:27:44.462Z,39.90
2022-11-08T00:30:46.921Z,30.67
2022-11-08T00:33:49.699Z,36.30
2022-11-08T00:36:53.763Z,28.67
2022-11-08T00:39:56.245Z,29.23
2022-11-08T00:42:58.299Z,29.30
2022-11-08T00:46:00.383Z,30.37
2022-11-08T00:49:02.525Z,27.50
2022-11-08T00:52:04.907Z,28.48
2022-11-08T00:55:07.407Z,31.92
2022-11-08T00:58:09.352Z,30.70
2022-11-08T01:01:13.701Z,31.17
2022-11-08T01:04:18.688Z,30.33
2022-11-08T01:07:20.711Z,26.70
2022-11-08T01:10:22.637Z,30.55
2022-11-08T01:13:24.719Z,26.73
2022-11-08T01:16:29.791Z,32.70
2022-11-08T01:19:31.858Z,30.08
2022-11-08T01:22:33.837Z,28.00
2022-11-08T01:25:37.772Z,30.00
2022-11-08T01:28:39.920Z,28.60
2022-11-08T01:31:41.994Z,28.67
2022-11-08T01:34:43.890Z,30.10
2022-11-08T01:37:45.945Z,28.60
2022-11-08T01:40:49.230Z,32.25
2022-11-08T01:43:59.220Z,32.13
2022-11-08T01:47:01.189Z,36.37
2022-11-08T01:50:08.233Z,32.38
2022-11-08T01:53:10.380Z,29.58
2022-11-08T01:56:14.706Z,30.08
2022-11-08T01:59:18.664Z,35.13
2022-11-08T02:02:21.534Z,34.60
2022-11-08T02:05:26.574Z,38.08
2022-11-08T02:08:38.644Z,34.13
2022-11-08T02:11:41.597Z,34.08
2022-11-08T02:14:43.576Z,39.33
2022-11-08T02:17:45.612Z,41.03
2022-11-08T02:21:02.875Z,53.25
2022-11-08T02:24:11.028Z,38.30
2022-11-08T02:27:14.595Z,35.90
2022-11-08T02:30:16.701Z,30.20
2022-11-08T02:33:21.225Z,32.80
2022-11-08T02:36:25.137Z,32.45
2022-11-08T02:39:27.297Z,33.63
2022-11-08T02:42:29.263Z,35.05
2022-11-08T02:45:31.339Z,38.03
2022-11-08T02:48:33.426Z,38.90
2022-11-08T02:51:35.498Z,33.30
2022-11-08T02:54:37.573Z,30.50
2022-11-08T02:57:39.566Z,38.78
2022-11-08T03:00:41.652Z,32.90
2022-11-08T03:03:43.658Z,29.83
2022-11-08T03:06:45.633Z,31.58
2022-11-08T03:09:47.662Z,33.30
2022-11-08T03:13:00.351Z,33.00
2022-11-08T03:16:04.322Z,35.87
2022-11-08T03:19:06.312Z,41.93
2022-11-08T03:22:08.349Z,35.33
2022-11-08T03:25:10.633Z,29.83
2022-11-08T03:28:12.633Z,34.88
2022-11-08T03:31:14.607Z,30.57
2022-11-08T03:34:16.871Z,33.20
2022-11-08T03:37:18.934Z,32.28
2022-11-08T03:40:21.597Z,26.35
2022-11-08T03:43:23.570Z,27.85
2022-11-08T03:46:25.674Z,22.40
2022-11-08T03:49:28.121Z,29.43
2022-11-08T03:52:30.108Z,29.45
2022-11-08T03:55:32.171Z,31.67
2022-11-08T03:58:35.626Z,31.17
2022-11-08T04:01:38.450Z,28.17
2022-11-08T04:04:40.566Z,28.73
2022-11-08T04:07:43.381Z,25.73
2022-11-08T04:10:45.482Z,24.98
2022-11-08T04:14:06.094Z,24.98
2022-11-08T04:17:08.046Z,24.03
2022-11-08T04:20:29.194Z,23.27
2022-11-08T04:23:32.571Z,14.65
2022-11-08T04:26:34.591Z,22.10
2022-11-08T04:29:36.677Z,25.90
2022-11-08T04:32:38.620Z,22.57
2022-11-08T04:35:40.669Z,25.60
2022-11-08T04:38:43.097Z,25.48
2022-11-08T04:41:45.133Z,24.40
2022-11-08T04:44:47.152Z,25.42
2022-11-08T04:47:49.554Z,19.87
2022-11-08T04:50:51.515Z,24.77
2022-11-08T04:53:55.550Z,23.95
2022-11-08T04:56:57.552Z,24.25
2022-11-08T04:59:59.532Z,26.55
2022-11-08T05:03:04.501Z,30.73
2022-11-08T05:06:10.571Z,32.37
2022-11-08T05:09:12.552Z,28.75
2022-11-08T05:12:14.523Z,29.25
2022-11-08T05:15:16.447Z,30.60
2022-11-08T05:18:18.836Z,26.93
2022-11-08T05:21:41.477Z,28.70
2022-11-08T05:24:43.465Z,32.67
2022-11-08T05:27:45.499Z,26.12
2022-11-08T05:30:57.258Z,29.02
2022-11-08T05:34:00.893Z,29.97
2022-11-08T05:37:02.974Z,28.67
2022-11-08T05:40:05.543Z,27.73
2022-11-08T05:43:07.784Z,32.22
2022-11-08T05:46:09.801Z,30.95
2022-11-08T05:49:12.004Z,30.77
2022-11-08T05:52:13.977Z,28.80
2022-11-08T05:55:16.016Z,34.53
2022-11-08T05:58:18.184Z,29.35
2022-11-08T06:01:20.583Z,70.68
2022-11-08T06:04:22.538Z,58.83
2022-11-08T06:07:24.709Z,40.97
2022-11-08T06:10:26.998Z,50.10
2022-11-08T06:13:29.388Z,45.22
2022-11-08T06:16:31.796Z,42.65
2022-11-08T06:19:33.723Z,49.67
2022-11-08T06:22:36.112Z,53.47
2022-11-08T06:25:38.204Z,49.28
2022-11-08T06:28:40.225Z,48.60
2022-11-08T06:31:43.300Z,49.17
2022-11-08T06:34:49.257Z,41.73
2022-11-08T06:37:51.322Z,39.50
2022-11-08T06:40:53.925Z,44.05
2022-11-08T06:43:56.281Z,50.47
2022-11-08T06:46:59.937Z,44.00
2022-11-08T06:50:01.902Z,39.50
2022-11-08T06:53:06.478Z,35.90
2022-11-08T06:56:09.041Z,35.25
2022-11-08T06:59:11.584Z,29.52
2022-11-08T07:02:13.915Z,29.45
2022-11-08T07:05:15.944Z,27.40
2022-11-08T07:08:23.328Z,31.40
2022-11-08T07:11:26.283Z,29.98
2022-11-08T07:14:28.358Z,30.37
2022-11-08T07:17:34.271Z,30.40
2022-11-08T07:20:40.203Z,24.10
2022-11-08T07:23:42.217Z,32.80
2022-11-08T07:26:44.271Z,28.00
2022-11-08T07:29:46.625Z,29.67
2022-11-08T07:32:48.866Z,40.45
2022-11-08T07:35:50.843Z,37.87
2022-11-08T07:38:52.897Z,45.73
2022-11-08T07:41:54.906Z,28.87
2022-11-08T07:44:56.828Z,23.67
2022-11-08T07:48:00.271Z,24.25
2022-11-08T07:51:02.249Z,20.13
2022-11-08T07:54:04.279Z,17.80
2022-11-08T07:57:06.304Z,19.17
2022-11-08T08:00:09.175Z,17.42
2022-11-08T08:03:14.013Z,18.98
2022-11-08T08:06:15.984Z,15.33
2022-11-08T08:09:18.035Z,15.90
2022-11-08T08:12:20.014Z,16.00
2022-11-08T08:15:22.446Z,20.30
2022-11-08T08:18:24.438Z,17.95
2022-11-08T08:21:26.406Z,21.23
2022-11-08T08:24:28.341Z,18.67
2022-11-08T08:27:30.293Z,19.85
2022-11-08T08:30:32.730Z,18.87
2022-11-08T08:33:34.994Z,20.35
2022-11-08T08:36:37.021Z,22.63
2022-11-08T08:39:39.057Z,14.63
2022-11-08T08:42:41.080Z,18.98
2022-11-08T08:45:43.804Z,15.70
2022-11-08T08:48:45.777Z,19.27
2022-11-08T08:51:47.783Z,16.17
2022-11-08T08:54:50.210Z,18.90
2022-11-08T08:57:52.261Z,18.27
2022-11-08T09:04:16.500Z,21.60
2022-11-08T09:07:18.725Z,18.87
2022-11-08T09:10:21.139Z,19.60
2022-11-08T09:13:24.626Z,20.25
2022-11-08T09:16:26.834Z,18.87
2022-11-08T09:19:28.801Z,18.65
2022-11-08T09:22:33.367Z,15.10
2022-11-08T09:25:35.396Z,16.73
2022-11-08T09:28:37.596Z,14.52
2022-11-08T09:31:39.733Z,16.00
2022-11-08T09:34:41.750Z,16.15
2022-11-08T09:37:47.104Z,18.30
2022-11-08T09:40:57.696Z,15.37
2022-11-08T09:44:08.295Z,16.98
2022-11-08T09:47:19.309Z,16.10
2022-11-08T09:50:31.330Z,16.33
2022-11-08T09:53:49.579Z,16.10
2022-11-08T09:56:53.983Z,17.27
2022-11-08T10:00:05.934Z,16.75
2022-11-08T10:03:15.605Z,15.60
2022-11-08T10:06:20.924Z,15.30
2022-11-08T10:09:25.745Z,17.62
2022-11-08T10:13:01.374Z,16.20
2022-11-08T10:16:09.422Z,17.65
2022-11-08T10:19:11.335Z,14.00
2022-11-08T10:22:41.152Z,17.23
2022-11-08T10:25:47.297Z,15.95
2022-11-08T10:28:55.180Z,14.70
2022-11-08T10:32:05.589Z,17.08
2022-11-08T10:35:34.966Z,16.00
2022-11-08T10:39:01.437Z,16.08
2022-11-08T10:42:13.912Z,17.60
2022-11-08T10:45:16.019Z,14.87
2022-11-08T10:48:18.322Z,13.52
2022-11-08T10:51:20.472Z,14.48
2022-11-08T10:54:51.296Z,14.75
2022-11-08T10:57:53.753Z,14.10
2022-11-08T11:01:17.741Z,13.60
2022-11-08T11:04:27.962Z,14.60
2022-11-08T11:07:36.528Z,17.90
2022-11-08T11:10:39.843Z,15.43
2022-11-08T11:13:41.791Z,16.37
2022-11-08T11:17:14.285Z,14.43
2022-11-08T11:20:23.168Z,13.68
2022-11-08T11:23:52.454Z,14.35
2022-11-08T11:26:57.552Z,14.95
2022-11-08T11:30:15.282Z,17.85
2022-11-08T11:33:27.712Z,16.23
2022-11-08T11:36:30.523Z,15.02
2022-11-08T11:39:54.372Z,15.07
2022-11-08T11:43:16.673Z,14.40
2022-11-08T11:46:31.597Z,15.73
2022-11-08T11:49:36.011Z,16.37
2022-11-08T11:52:38.103Z,14.82
2022-11-08T11:56:05.778Z,15.32
2022-11-08T11:59:40.128Z,17.80
2022-11-08T12:03:11.143Z,18.20
2022-11-08T12:06:25.873Z,15.50
2022-11-08T12:09:46.565Z,16.85
2022-11-08T12:13:22.687Z,19.33
2022-11-08T12:16:43.063Z,16.40
2022-11-08T12:19:57.406Z,16.05
2022-11-08T12:23:24.737Z,16.73
2022-11-08T12:26:40.999Z,16.50
2022-11-08T12:29:48.938Z,16.95
2022-11-08T12:33:09.803Z,15.43
2022-11-08T12:36:37.263Z,18.02
2022-11-08T12:39:59.625Z,19.97
2022-11-08T12:43:05.517Z,20.70
2022-11-08T12:46:19.154Z,19.08
2022-11-08T12:49:36.777Z,17.95
2022-11-08T12:52:53.979Z,19.02
2022-11-08T12:55:58.089Z,19.70
2022-11-08T12:59:01.414Z,17.58
2022-11-08T13:02:05.114Z,16.02
2022-11-08T13:05:21.111Z,18.35
2022-11-08T13:08:35.781Z,19.02
2022-11-08T13:12:07.198Z,19.27
2022-11-08T13:15:22.110Z,16.42
2022-11-08T13:18:33.340Z,19.23
2022-11-08T13:21:39.094Z,15.05
2022-11-08T13:24:44.726Z,17.08
2022-11-08T13:27:48.537Z,17.73
2022-11-08T13:31:02.075Z,17.73
2022-11-08T13:34:12.558Z,18.62
2022-11-08T13:37:51.804Z,20.33
2022-11-08T13:41:02.724Z,17.40
2022-11-08T13:44:43.297Z,13.70
2022-11-08T13:47:48.066Z,17.02
2022-11-08T13:51:27.960Z,19.42
2022-11-08T13:54:48.727Z,17.35
2022-11-08T13:57:58.170Z,13.77
2022-11-08T14:01:02.046Z,19.87
2022-11-08T14:04:24.172Z,16.12
2022-11-08T14:07:46.508Z,17.95
2022-11-08T14:11:00.243Z,16.30
2022-11-08T14:14:34.000Z,19.30
2022-11-08T14:17:59.338Z,19.93
2022-11-08T14:21:04.009Z,19.27
2022-11-08T14:24:15.192Z,18.23
2022-11-08T14:27:33.645Z,19.85
2022-11-08T14:30:35.757Z,23.42
2022-11-08T14:33:42.730Z,18.80
2022-11-08T14:36:45.340Z,12.30
2022-11-08T14:39:48.213Z,18.25
2022-11-08T14:42:51.721Z,18.08
2022-11-08T14:45:54.264Z,21.95
2022-11-08T14:48:58.319Z,24.70
2022-11-08T14:52:19.129Z,19.87
2022-11-08T14:55:25.572Z,19.83
2022-11-08T14:58:29.940Z,16.60
2022-11-08T15:01:33.527Z,18.37
2022-11-08T15:04:40.702Z,14.10
2022-11-08T15:07:46.939Z,19.65
2022-11-08T15:11:03.569Z,20.52
2022-11-08T15:14:09.848Z,24.12
2022-11-08T15:17:32.456Z,24.10
2022-11-08T15:20:34.693Z,22.87
2022-11-08T15:23:47.063Z,22.00
2022-11-08T15:27:13.559Z,18.17
2022-11-08T15:30:21.655Z,25.17
2022-11-08T15:33:38.059Z,25.93
2022-11-08T15:36:40.987Z,27.47
2022-11-08T15:39:46.574Z,23.95
2022-11-08T15:42:51.813Z,17.50
2022-11-08T15:45:54.341Z,24.55
2022-11-08T15:48:59.213Z,20.70
2022-11-08T15:52:03.599Z,15.60
2022-11-08T15:55:07.953Z,21.75
2022-11-08T15:58:28.720Z,20.40
2022-11-08T16:01:32.109Z,25.17
2022-11-08T16:04:35.475Z,21.43
2022-11-08T16:07:38.447Z,20.07
2022-11-08T16:10:47.659Z,21.40
2022-11-08T16:13:51.955Z,23.15
2022-11-08T16:16:58.355Z,23.08
2022-11-08T16:20:02.653Z,32.57
2022-11-08T16:23:11.619Z,28.77
2022-11-08T16:26:18.536Z,26.58
2022-11-08T16:29:25.000Z,29.98
2022-11-08T16:32:29.158Z,32.30
2022-11-08T16:35:41.578Z,25.93
2022-11-08T16:38:56.920Z,24.93
2022-11-08T16:42:00.118Z,25.15
2022-11-08T16:45:02.879Z,26.17
2022-11-08T16:48:06.505Z,27.80
2022-11-08T16:51:18.536Z,20.90
2022-11-08T16:54:25.094Z,22.97
2022-11-08T16:57:34.654Z,29.37
2022-11-08T17:00:46.563Z,25.77
2022-11-08T17:03:50.040Z,27.10
2022-11-08T17:06:54.055Z,20.17
2022-11-08T17:09:57.313Z,22.37
2022-11-08T17:13:00.567Z,23.17
2022-11-08T17:16:03.574Z,28.40
2022-11-08T17:19:06.817Z,28.87
2022-11-08T17:22:09.633Z,29.83
2022-11-08T17:25:16.667Z,26.03
2022-11-08T17:28:19.663Z,29.15
2022-11-08T17:31:23.724Z,28.95
2022-11-08T17:34:27.548Z,27.48
2022-11-08T17:37:30.973Z,28.90
2022-11-08T17:40:36.679Z,26.57
2022-11-08T17:43:40.322Z,28.65
2022-11-08T17:46:43.828Z,26.40
2022-11-08T17:49:46.741Z,22.80
2022-11-08T17:52:53.883Z,29.73
2022-11-08T17:56:00.431Z,26.43
2022-11-08T17:59:04.188Z,23.77
2022-11-08T18:02:07.853Z,22.05
2022-11-08T18:05:17.074Z,21.00
2022-11-08T18:08:26.495Z,28.90
2022-11-08T18:11:30.007Z,28.17
2022-11-08T18:14:33.179Z,27.98
2022-11-08T18:17:36.937Z,33.05
2022-11-08T18:20:40.275Z,22.08
2022-11-08T18:23:48.594Z,33.73
2022-11-08T18:26:52.417Z,32.90
2022-11-08T18:29:57.782Z,35.17
2022-11-08T18:33:00.832Z,29.48
2022-11-08T18:36:05.691Z,30.77
2022-11-08T18:39:12.077Z,31.77
2022-11-08T18:42:17.316Z,25.97
2022-11-08T18:45:20.779Z,25.88
2022-11-08T18:48:25.214Z,22.42
2022-11-08T18:51:28.357Z,33.25
2022-11-08T18:54:32.095Z,29.00
2022-11-08T18:57:36.684Z,25.27
2022-11-08T19:00:40.869Z,33.60
2022-11-08T19:03:43.821Z,32.63
2022-11-08T19:06:54.374Z,26.85
2022-11-08T19:09:59.649Z,36.90
2022-11-08T19:13:08.198Z,33.70
2022-11-08T19:16:17.746Z,33.15
2022-11-08T19:19:21.569Z,38.88
2022-11-08T19:22:25.275Z,33.20
2022-11-08T19:25:28.886Z,38.97
2022-11-08T19:28:34.405Z,34.43
2022-11-08T19:31:37.651Z,24.70
2022-11-08T19:34:42.404Z,21.70
2022-11-08T19:37:46.160Z,26.50
2022-11-08T19:40:51.014Z,36.67
2022-11-08T19:43:58.218Z,28.10
2022-11-08T19:47:01.294Z,29.20
2022-11-08T19:50:05.426Z,25.90
2022-11-08T19:53:08.991Z,30.48
2022-11-08T19:56:15.858Z,34.20
2022-11-08T19:59:20.642Z,30.57
2022-11-08T20:02:26.002Z,27.20
2022-11-08T20:05:29.251Z,32.38
2022-11-08T20:08:32.880Z,26.55
2022-11-08T20:11:43.483Z,33.13
2022-11-08T20:14:49.853Z,36.73
2022-11-08T20:17:53.681Z,36.63
2022-11-08T20:20:57.960Z,26.17
2022-11-08T20:24:01.393Z,32.47
2022-11-08T20:27:05.647Z,31.23
2022-11-08T20:30:09.596Z,30.40
2022-11-08T20:33:16.608Z,29.65
2022-11-08T20:36:23.909Z,40.88
2022-11-08T20:39:28.436Z,35.75
2022-11-08T20:42:31.723Z,45.90
2022-11-08T20:45:39.723Z,38.50
2022-11-08T20:48:44.727Z,34.00
2022-11-08T20:51:48.377Z,41.72
2022-11-08T20:54:51.915Z,32.60
2022-11-08T20:57:55.041Z,29.93
2022-11-08T21:00:59.488Z,41.43
2022-11-08T21:04:02.557Z,45.38
2022-11-08T21:08:00.925Z,41.13
2022-11-08T21:10:42.780Z,44.28
2022-11-08T21:13:47.961Z,32.43
2022-11-08T21:17:20.347Z,28.57
2022-11-08T21:20:15.740Z,37.85
2022-11-08T21:23:19.693Z,32.15
2022-11-08T21:26:23.473Z,45.97
2022-11-08T21:29:27.531Z,38.80
2022-11-08T21:32:30.392Z,48.47
2022-11-08T21:35:33.415Z,34.67
2022-11-08T21:38:37.719Z,56.97
2022-11-08T21:41:40.592Z,54.38
2022-11-08T21:44:42.745Z,49.93
2022-11-08T21:47:49.735Z,51.73
2022-11-08T21:50:52.080Z,32.05
2022-11-08T21:53:56.184Z,51.50
2022-11-08T21:56:58.450Z,25.12
2022-11-08T22:00:00.572Z,40.20
2022-11-08T22:03:02.849Z,47.20
2022-11-08T22:06:05.071Z,38.97
2022-11-08T22:09:07.144Z,32.13
2022-11-08T22:12:09.201Z,44.03
2022-11-08T22:15:11.507Z,34.73
2022-11-08T22:18:16.408Z,40.67
2022-11-08T22:21:43.265Z,42.25
2022-11-08T22:24:45.609Z,42.90
2022-11-08T22:27:47.702Z,42.13
2022-11-08T22:30:51.456Z,47.50
2022-11-08T22:33:53.529Z,44.43
2022-11-08T22:36:55.495Z,35.47
2022-11-08T22:39:57.667Z,40.97
2022-11-08T22:42:59.700Z,45.05
2022-11-08T22:46:02.037Z,38.00
2022-11-08T22:49:04.796Z,33.63
2022-11-08T22:52:06.879Z,34.40
2022-11-08T22:55:09.343Z,26.17
2022-11-08T22:58:12.621Z,31.85
2022-11-08T23:01:15.978Z,31.63
2022-11-08T23:04:19.584Z,41.57
2022-11-08T23:07:21.639Z,39.13
2022-11-08T23:10:23.900Z,43.17
2022-11-08T23:13:44.605Z,35.42
2022-11-08T23:16:47.122Z,38.43
2022-11-08T23:20:07.534Z,37.67
2022-11-08T23:23:29.152Z,30.98
2022-11-08T23:26:50.176Z,39.08
2022-11-08T23:30:10.807Z,26.42
2022-11-08T23:33:12.880Z,40.90
2022-11-08T23:36:15.974Z,43.53
2022-11-08T23:39:18.280Z,34.50
2022-11-08T23:42:39.245Z,32.65
2022-11-08T23:45:41.227Z,22.90
2022-11-08T23:48:43.433Z,30.57
2022-11-08T23:51:45.645Z,41.90
2022-11-08T23:54:47.623Z,26.90
2022-11-08T23:57:49.570Z,38.67
